sensor_id;sensor_type;location;lat;lon;timestamp;temperature;humidity
35970;DHT22;22448;51.298;6.430;2023-07-13T00:01:55;16.00;99.90
35970;DHT22;22448;51.298;6.430;2023-07-13T00:04:24;16.00;99.90
35970;DHT22;22448;51.298;6.430;2023-07-13T00:06:55;15.90;99.90
35970;DHT22;22448;51.298;6.430;2023-07-13T00:09:22;15.90;99.90
35970;DHT22;22448;51.298;6.430;2023-07-13T00:11:52;15.80;99.90
35970;DHT22;22448;51.298;6.430;2023-07-13T00:14:20;15.80;99.90
35970;DHT22;22448;51.298;6.430;2023-07-13T00:16:47;15.70;99.90
35970;DHT22;22448;51.298;6.430;2023-07-13T00:19:15;15.70;99.90
35970;DHT22;22448;51.298;6.430;2023-07-13T00:21:42;15.70;99.90
35970;DHT22;22448;51.298;6.430;2023-07-13T00:24:12;15.60;99.90
35970;DHT22;22448;51.298;6.430;2023-07-13T00:26:40;15.70;99.90
35970;DHT22;22448;51.298;6.430;2023-07-13T00:29:08;15.60;99.90
35970;DHT22;22448;51.298;6.430;2023-07-13T00:31:36;15.60;99.90
35970;DHT22;22448;51.298;6.430;2023-07-13T00:34:04;15.60;99.90
35970;DHT22;22448;51.298;6.430;2023-07-13T00:36:31;15.60;99.90
35970;DHT22;22448;51.298;6.430;2023-07-13T00:38:58;15.60;99.90
35970;DHT22;22448;51.298;6.430;2023-07-13T00:41:25;15.50;99.90
35970;DHT22;22448;51.298;6.430;2023-07-13T00:43:53;15.50;99.90
35970;DHT22;22448;51.298;6.430;2023-07-13T00:46:34;15.50;99.90
35970;DHT22;22448;51.298;6.430;2023-07-13T00:49:08;15.50;99.90
35970;DHT22;22448;51.298;6.430;2023-07-13T00:51:43;15.50;99.90
35970;DHT22;22448;51.298;6.430;2023-07-13T00:54:15;15.40;99.90
35970;DHT22;22448;51.298;6.430;2023-07-13T00:56:45;15.40;99.90
35970;DHT22;22448;51.298;6.430;2023-07-13T00:59:15;15.30;99.90
35970;DHT22;22448;51.298;6.430;2023-07-13T01:01:44;15.30;99.90
35970;DHT22;22448;51.298;6.430;2023-07-13T01:04:11;15.30;99.90
35970;DHT22;22448;51.298;6.430;2023-07-13T01:06:41;15.30;99.90
35970;DHT22;22448;51.298;6.430;2023-07-13T01:09:11;15.30;99.90
35970;DHT22;22448;51.298;6.430;2023-07-13T01:11:38;15.30;99.90
35970;DHT22;22448;51.298;6.430;2023-07-13T01:14:07;15.30;99.90
35970;DHT22;22448;51.298;6.430;2023-07-13T01:16:36;15.20;99.90
35970;DHT22;22448;51.298;6.430;2023-07-13T01:19:22;15.20;99.90
35970;DHT22;22448;51.298;6.430;2023-07-13T01:21:52;15.20;99.90
35970;DHT22;22448;51.298;6.430;2023-07-13T01:24:20;15.20;99.90
35970;DHT22;22448;51.298;6.430;2023-07-13T01:26:48;15.20;99.90
35970;DHT22;22448;51.298;6.430;2023-07-13T01:29:15;15.10;99.90
35970;DHT22;22448;51.298;6.430;2023-07-13T01:31:43;15.10;99.90
35970;DHT22;22448;51.298;6.430;2023-07-13T01:34:11;15.10;99.90
35970;DHT22;22448;51.298;6.430;2023-07-13T01:36:38;15.00;99.90
35970;DHT22;22448;51.298;6.430;2023-07-13T01:39:06;15.00;99.90
35970;DHT22;22448;51.298;6.430;2023-07-13T01:41:34;15.00;99.90
35970;DHT22;22448;51.298;6.430;2023-07-13T01:44:01;15.00;99.90
35970;DHT22;22448;51.298;6.430;2023-07-13T01:46:30;15.00;99.90
35970;DHT22;22448;51.298;6.430;2023-07-13T01:48:57;14.90;99.90
35970;DHT22;22448;51.298;6.430;2023-07-13T01:51:24;15.00;99.90
35970;DHT22;22448;51.298;6.430;2023-07-13T01:53:51;15.00;99.90
35970;DHT22;22448;51.298;6.430;2023-07-13T01:56:19;14.90;99.90
35970;DHT22;22448;51.298;6.430;2023-07-13T01:58:47;14.90;99.90
35970;DHT22;22448;51.298;6.430;2023-07-13T02:01:14;14.90;99.90
35970;DHT22;22448;51.298;6.430;2023-07-13T02:03:41;15.00;99.90
35970;DHT22;22448;51.298;6.430;2023-07-13T02:06:08;14.90;99.90
35970;DHT22;22448;51.298;6.430;2023-07-13T02:08:37;14.90;99.90
35970;DHT22;22448;51.298;6.430;2023-07-13T02:11:04;14.80;99.90
35970;DHT22;22448;51.298;6.430;2023-07-13T02:13:31;14.80;99.90
35970;DHT22;22448;51.298;6.430;2023-07-13T02:15:58;14.80;99.90
35970;DHT22;22448;51.298;6.430;2023-07-13T02:18:25;14.80;99.90
35970;DHT22;22448;51.298;6.430;2023-07-13T02:20:53;14.70;99.90
35970;DHT22;22448;51.298;6.430;2023-07-13T02:23:20;14.70;99.90
35970;DHT22;22448;51.298;6.430;2023-07-13T02:25:47;14.70;99.90
35970;DHT22;22448;51.298;6.430;2023-07-13T02:28:15;14.70;99.90
35970;DHT22;22448;51.298;6.430;2023-07-13T02:30:42;14.70;99.90
35970;DHT22;22448;51.298;6.430;2023-07-13T02:33:10;14.60;99.90
35970;DHT22;22448;51.298;6.430;2023-07-13T02:35:37;14.60;99.90
35970;DHT22;22448;51.298;6.430;2023-07-13T02:38:04;14.60;99.90
35970;DHT22;22448;51.298;6.430;2023-07-13T02:40:31;14.60;99.90
35970;DHT22;22448;51.298;6.430;2023-07-13T02:43:00;14.50;99.90
35970;DHT22;22448;51.298;6.430;2023-07-13T02:45:30;14.50;99.90
35970;DHT22;22448;51.298;6.430;2023-07-13T02:47:57;14.50;99.90
35970;DHT22;22448;51.298;6.430;2023-07-13T02:50:25;14.50;99.90
35970;DHT22;22448;51.298;6.430;2023-07-13T02:52:52;14.50;99.90
35970;DHT22;22448;51.298;6.430;2023-07-13T02:55:19;14.40;99.90
35970;DHT22;22448;51.298;6.430;2023-07-13T02:57:46;14.40;99.90
35970;DHT22;22448;51.298;6.430;2023-07-13T03:00:13;14.40;99.90
35970;DHT22;22448;51.298;6.430;2023-07-13T03:02:40;14.40;99.90
35970;DHT22;22448;51.298;6.430;2023-07-13T03:05:08;14.40;99.90
35970;DHT22;22448;51.298;6.430;2023-07-13T03:07:39;14.30;99.90
35970;DHT22;22448;51.298;6.430;2023-07-13T03:10:08;14.30;99.90
35970;DHT22;22448;51.298;6.430;2023-07-13T03:12:42;14.30;99.90
35970;DHT22;22448;51.298;6.430;2023-07-13T03:15:17;14.30;99.90
35970;DHT22;22448;51.298;6.430;2023-07-13T03:17:45;14.30;99.90
35970;DHT22;22448;51.298;6.430;2023-07-13T03:20:13;14.30;99.90
35970;DHT22;22448;51.298;6.430;2023-07-13T03:22:40;14.30;99.90
35970;DHT22;22448;51.298;6.430;2023-07-13T03:25:08;14.30;99.90
35970;DHT22;22448;51.298;6.430;2023-07-13T03:27:35;14.30;99.90
35970;DHT22;22448;51.298;6.430;2023-07-13T03:30:04;14.30;99.90
35970;DHT22;22448;51.298;6.430;2023-07-13T03:32:32;14.30;99.90
35970;DHT22;22448;51.298;6.430;2023-07-13T03:34:59;14.30;99.90
35970;DHT22;22448;51.298;6.430;2023-07-13T03:37:28;14.30;99.90
35970;DHT22;22448;51.298;6.430;2023-07-13T03:39:56;14.30;99.90
35970;DHT22;22448;51.298;6.430;2023-07-13T03:42:25;14.30;99.90
35970;DHT22;22448;51.298;6.430;2023-07-13T03:44:52;14.30;99.90
35970;DHT22;22448;51.298;6.430;2023-07-13T03:47:21;14.40;99.90
35970;DHT22;22448;51.298;6.430;2023-07-13T03:49:49;14.40;99.90
35970;DHT22;22448;51.298;6.430;2023-07-13T03:52:16;14.40;99.90
35970;DHT22;22448;51.298;6.430;2023-07-13T03:54:43;14.50;99.90
35970;DHT22;22448;51.298;6.430;2023-07-13T03:57:10;14.50;99.90
35970;DHT22;22448;51.298;6.430;2023-07-13T03:59:37;14.50;99.90
35970;DHT22;22448;51.298;6.430;2023-07-13T04:02:05;14.60;99.90
35970;DHT22;22448;51.298;6.430;2023-07-13T04:04:33;14.60;99.90
35970;DHT22;22448;51.298;6.430;2023-07-13T04:07:00;14.70;99.90
35970;DHT22;22448;51.298;6.430;2023-07-13T04:09:28;14.70;99.90
35970;DHT22;22448;51.298;6.430;2023-07-13T04:11:55;14.80;99.90
35970;DHT22;22448;51.298;6.430;2023-07-13T04:14:22;14.80;99.90
35970;DHT22;22448;51.298;6.430;2023-07-13T04:16:49;14.80;99.90
35970;DHT22;22448;51.298;6.430;2023-07-13T04:19:16;14.90;99.90
35970;DHT22;22448;51.298;6.430;2023-07-13T04:21:43;14.90;99.90
35970;DHT22;22448;51.298;6.430;2023-07-13T04:24:10;14.90;99.90
35970;DHT22;22448;51.298;6.430;2023-07-13T04:26:37;15.00;99.90
35970;DHT22;22448;51.298;6.430;2023-07-13T04:29:06;15.00;99.90
35970;DHT22;22448;51.298;6.430;2023-07-13T04:31:33;15.10;99.90
35970;DHT22;22448;51.298;6.430;2023-07-13T04:34:01;15.20;99.90
35970;DHT22;22448;51.298;6.430;2023-07-13T04:36:28;15.20;99.90
35970;DHT22;22448;51.298;6.430;2023-07-13T04:38:55;15.30;99.90
35970;DHT22;22448;51.298;6.430;2023-07-13T04:41:22;15.30;99.90
35970;DHT22;22448;51.298;6.430;2023-07-13T04:43:49;15.30;99.90
35970;DHT22;22448;51.298;6.430;2023-07-13T04:46:17;15.40;99.90
35970;DHT22;22448;51.298;6.430;2023-07-13T04:48:46;15.50;99.90
35970;DHT22;22448;51.298;6.430;2023-07-13T04:51:13;15.60;99.90
35970;DHT22;22448;51.298;6.430;2023-07-13T04:53:40;15.60;99.90
35970;DHT22;22448;51.298;6.430;2023-07-13T04:56:07;15.70;99.90
35970;DHT22;22448;51.298;6.430;2023-07-13T04:58:35;15.80;99.90
35970;DHT22;22448;51.298;6.430;2023-07-13T05:01:04;15.90;99.90
35970;DHT22;22448;51.298;6.430;2023-07-13T05:03:31;16.00;99.90
35970;DHT22;22448;51.298;6.430;2023-07-13T05:06:01;16.10;99.90
35970;DHT22;22448;51.298;6.430;2023-07-13T05:08:29;16.60;99.90
35970;DHT22;22448;51.298;6.430;2023-07-13T05:10:56;18.50;99.90
35970;DHT22;22448;51.298;6.430;2023-07-13T05:13:23;20.00;99.90
35970;DHT22;22448;51.298;6.430;2023-07-13T05:15:59;21.50;99.90
35970;DHT22;22448;51.298;6.430;2023-07-13T05:18:27;22.70;99.90
35970;DHT22;22448;51.298;6.430;2023-07-13T05:20:58;23.50;99.90
35970;DHT22;22448;51.298;6.430;2023-07-13T05:23:25;24.10;99.90
35970;DHT22;22448;51.298;6.430;2023-07-13T05:25:52;24.70;99.90
35970;DHT22;22448;51.298;6.430;2023-07-13T05:28:19;25.20;99.90
35970;DHT22;22448;51.298;6.430;2023-07-13T05:30:47;25.70;98.50
35970;DHT22;22448;51.298;6.430;2023-07-13T05:33:14;25.80;97.90
35970;DHT22;22448;51.298;6.430;2023-07-13T05:35:41;26.10;97.40
35970;DHT22;22448;51.298;6.430;2023-07-13T05:38:08;26.20;97.00
35970;DHT22;22448;51.298;6.430;2023-07-13T05:40:35;26.80;96.50
35970;DHT22;22448;51.298;6.430;2023-07-13T05:43:03;27.10;95.70
35970;DHT22;22448;51.298;6.430;2023-07-13T05:45:30;27.20;95.10
35970;DHT22;22448;51.298;6.430;2023-07-13T05:47:57;27.20;95.00
35970;DHT22;22448;51.298;6.430;2023-07-13T05:50:26;27.50;94.90
35970;DHT22;22448;51.298;6.430;2023-07-13T05:52:53;27.90;94.30
35970;DHT22;22448;51.298;6.430;2023-07-13T05:55:20;28.30;93.70
35970;DHT22;22448;51.298;6.430;2023-07-13T05:57:48;28.70;93.30
35970;DHT22;22448;51.298;6.430;2023-07-13T06:00:15;28.70;92.70
35970;DHT22;22448;51.298;6.430;2023-07-13T06:02:42;28.40;93.10
35970;DHT22;22448;51.298;6.430;2023-07-13T06:05:10;28.30;93.50
35970;DHT22;22448;51.298;6.430;2023-07-13T06:07:38;28.60;92.70
35970;DHT22;22448;51.298;6.430;2023-07-13T06:10:05;29.00;92.40
35970;DHT22;22448;51.298;6.430;2023-07-13T06:12:32;29.30;92.30
35970;DHT22;22448;51.298;6.430;2023-07-13T06:14:59;28.60;92.30
35970;DHT22;22448;51.298;6.430;2023-07-13T06:17:26;28.20;92.70
35970;DHT22;22448;51.298;6.430;2023-07-13T06:19:54;26.40;94.00
35970;DHT22;22448;51.298;6.430;2023-07-13T06:22:21;24.50;96.50
35970;DHT22;22448;51.298;6.430;2023-07-13T06:24:48;23.00;99.20
35970;DHT22;22448;51.298;6.430;2023-07-13T06:27:15;21.80;99.90
35970;DHT22;22448;51.298;6.430;2023-07-13T06:29:42;21.10;99.90
35970;DHT22;22448;51.298;6.430;2023-07-13T06:32:12;20.60;99.90
35970;DHT22;22448;51.298;6.430;2023-07-13T06:34:39;20.00;99.90
35970;DHT22;22448;51.298;6.430;2023-07-13T06:37:09;19.50;99.90
35970;DHT22;22448;51.298;6.430;2023-07-13T06:39:37;19.20;99.90
35970;DHT22;22448;51.298;6.430;2023-07-13T06:42:05;19.10;99.90
35970;DHT22;22448;51.298;6.430;2023-07-13T06:44:32;19.10;99.90
35970;DHT22;22448;51.298;6.430;2023-07-13T06:46:59;19.10;99.90
35970;DHT22;22448;51.298;6.430;2023-07-13T06:49:26;19.30;99.90
35970;DHT22;22448;51.298;6.430;2023-07-13T06:51:54;19.70;99.90
35970;DHT22;22448;51.298;6.430;2023-07-13T06:54:21;19.80;99.90
35970;DHT22;22448;51.298;6.430;2023-07-13T06:56:48;19.70;99.90
35970;DHT22;22448;51.298;6.430;2023-07-13T06:59:15;20.00;99.90
35970;DHT22;22448;51.298;6.430;2023-07-13T07:01:42;19.90;99.90
35970;DHT22;22448;51.298;6.430;2023-07-13T07:04:09;19.90;99.90
35970;DHT22;22448;51.298;6.430;2023-07-13T07:06:36;20.40;99.90
35970;DHT22;22448;51.298;6.430;2023-07-13T07:09:03;20.20;99.90
35970;DHT22;22448;51.298;6.430;2023-07-13T07:11:30;20.40;99.90
35970;DHT22;22448;51.298;6.430;2023-07-13T07:13:58;20.30;99.90
35970;DHT22;22448;51.298;6.430;2023-07-13T07:16:25;20.30;99.90
35970;DHT22;22448;51.298;6.430;2023-07-13T07:18:52;20.20;99.90
35970;DHT22;22448;51.298;6.430;2023-07-13T07:21:20;20.10;99.90
35970;DHT22;22448;51.298;6.430;2023-07-13T07:23:49;21.70;99.90
35970;DHT22;22448;51.298;6.430;2023-07-13T07:26:16;22.50;99.90
35970;DHT22;22448;51.298;6.430;2023-07-13T07:28:43;22.40;99.90
35970;DHT22;22448;51.298;6.430;2023-07-13T07:31:16;22.60;99.90
35970;DHT22;22448;51.298;6.430;2023-07-13T07:33:46;22.10;99.90
35970;DHT22;22448;51.298;6.430;2023-07-13T07:36:13;21.60;99.90
35970;DHT22;22448;51.298;6.430;2023-07-13T07:38:43;21.60;99.90
35970;DHT22;22448;51.298;6.430;2023-07-13T07:41:12;21.50;99.90
35970;DHT22;22448;51.298;6.430;2023-07-13T07:43:43;22.00;99.90
35970;DHT22;22448;51.298;6.430;2023-07-13T07:46:10;22.00;99.90
35970;DHT22;22448;51.298;6.430;2023-07-13T07:48:38;22.90;99.90
35970;DHT22;22448;51.298;6.430;2023-07-13T07:51:04;22.70;99.90
35970;DHT22;22448;51.298;6.430;2023-07-13T07:53:31;22.80;99.90
35970;DHT22;22448;51.298;6.430;2023-07-13T07:56:00;22.70;99.90
35970;DHT22;22448;51.298;6.430;2023-07-13T07:58:47;22.60;99.90
35970;DHT22;22448;51.298;6.430;2023-07-13T08:01:17;22.30;99.90
35970;DHT22;22448;51.298;6.430;2023-07-13T08:03:47;22.10;99.90
35970;DHT22;22448;51.298;6.430;2023-07-13T08:06:17;21.70;99.90
35970;DHT22;22448;51.298;6.430;2023-07-13T08:08:49;21.50;99.90
35970;DHT22;22448;51.298;6.430;2023-07-13T08:11:17;21.30;99.90
35970;DHT22;22448;51.298;6.430;2023-07-13T08:13:47;21.20;99.90
35970;DHT22;22448;51.298;6.430;2023-07-13T08:16:15;21.30;99.90
35970;DHT22;22448;51.298;6.430;2023-07-13T08:18:43;21.40;99.90
35970;DHT22;22448;51.298;6.430;2023-07-13T08:21:10;21.70;99.90
35970;DHT22;22448;51.298;6.430;2023-07-13T08:23:37;21.80;99.90
35970;DHT22;22448;51.298;6.430;2023-07-13T08:26:05;22.00;99.90
35970;DHT22;22448;51.298;6.430;2023-07-13T08:28:33;22.40;99.90
35970;DHT22;22448;51.298;6.430;2023-07-13T08:31:06;22.60;99.90
35970;DHT22;22448;51.298;6.430;2023-07-13T08:33:35;22.80;99.90
35970;DHT22;22448;51.298;6.430;2023-07-13T08:36:03;22.90;99.90
35970;DHT22;22448;51.298;6.430;2023-07-13T08:38:32;22.80;99.90
35970;DHT22;22448;51.298;6.430;2023-07-13T08:40:59;22.80;99.90
35970;DHT22;22448;51.298;6.430;2023-07-13T08:43:34;22.60;99.90
35970;DHT22;22448;51.298;6.430;2023-07-13T08:48:58;22.70;99.90
35970;DHT22;22448;51.298;6.430;2023-07-13T08:51:49;23.50;99.90
35970;DHT22;22448;51.298;6.430;2023-07-13T08:54:27;24.20;99.90
35970;DHT22;22448;51.298;6.430;2023-07-13T08:56:56;24.60;99.90
35970;DHT22;22448;51.298;6.430;2023-07-13T08:59:29;24.40;99.90
35970;DHT22;22448;51.298;6.430;2023-07-13T09:05:31;23.90;99.90
35970;DHT22;22448;51.298;6.430;2023-07-13T09:08:38;23.40;99.90
35970;DHT22;22448;51.298;6.430;2023-07-13T09:11:30;23.60;99.90
35970;DHT22;22448;51.298;6.430;2023-07-13T09:16:58;23.70;99.90
35970;DHT22;22448;51.298;6.430;2023-07-13T09:19:30;23.70;99.90
35970;DHT22;22448;51.298;6.430;2023-07-13T09:22:02;23.80;99.90
35970;DHT22;22448;51.298;6.430;2023-07-13T09:24:41;23.80;99.90
35970;DHT22;22448;51.298;6.430;2023-07-13T09:27:24;23.70;99.90
35970;DHT22;22448;51.298;6.430;2023-07-13T09:30:11;23.60;99.90
35970;DHT22;22448;51.298;6.430;2023-07-13T09:32:49;23.60;99.90
35970;DHT22;22448;51.298;6.430;2023-07-13T09:35:21;23.70;99.90
35970;DHT22;22448;51.298;6.430;2023-07-13T09:37:49;23.90;99.90
35970;DHT22;22448;51.298;6.430;2023-07-13T09:43:10;24.10;99.90
35970;DHT22;22448;51.298;6.430;2023-07-13T09:45:37;24.50;99.90
35970;DHT22;22448;51.298;6.430;2023-07-13T09:48:11;24.40;99.90
35970;DHT22;22448;51.298;6.430;2023-07-13T09:50:40;24.10;99.90
35970;DHT22;22448;51.298;6.430;2023-07-13T09:53:16;24.00;99.90
35970;DHT22;22448;51.298;6.430;2023-07-13T09:55:46;24.00;99.90
35970;DHT22;22448;51.298;6.430;2023-07-13T09:58:23;24.10;99.90
35970;DHT22;22448;51.298;6.430;2023-07-13T10:01:02;24.50;99.90
35970;DHT22;22448;51.298;6.430;2023-07-13T10:03:36;24.70;99.90
35970;DHT22;22448;51.298;6.430;2023-07-13T10:06:13;24.80;99.90
35970;DHT22;22448;51.298;6.430;2023-07-13T10:08:40;24.80;99.90
35970;DHT22;22448;51.298;6.430;2023-07-13T10:11:19;25.00;99.90
35970;DHT22;22448;51.298;6.430;2023-07-13T10:14:28;25.20;99.90
35970;DHT22;22448;51.298;6.430;2023-07-13T10:16:55;25.40;99.90
35970;DHT22;22448;51.298;6.430;2023-07-13T10:19:26;25.70;99.60
35970;DHT22;22448;51.298;6.430;2023-07-13T10:21:56;26.10;99.50
35970;DHT22;22448;51.298;6.430;2023-07-13T10:24:42;26.10;98.10
35970;DHT22;22448;51.298;6.430;2023-07-13T10:27:12;26.30;97.60
35970;DHT22;22448;51.298;6.430;2023-07-13T10:29:50;26.10;97.80
35970;DHT22;22448;51.298;6.430;2023-07-13T10:32:21;26.20;97.80
35970;DHT22;22448;51.298;6.430;2023-07-13T10:34:51;26.10;98.60
35970;DHT22;22448;51.298;6.430;2023-07-13T10:37:23;26.10;97.80
35970;DHT22;22448;51.298;6.430;2023-07-13T10:39:53;26.10;97.40
35970;DHT22;22448;51.298;6.430;2023-07-13T10:42:32;26.20;97.90
35970;DHT22;22448;51.298;6.430;2023-07-13T10:45:00;26.30;98.40
35970;DHT22;22448;51.298;6.430;2023-07-13T10:47:28;26.10;96.80
35970;DHT22;22448;51.298;6.430;2023-07-13T10:49:58;26.20;98.10
35970;DHT22;22448;51.298;6.430;2023-07-13T10:52:46;26.20;96.90
35970;DHT22;22448;51.298;6.430;2023-07-13T10:55:40;26.00;96.90
35970;DHT22;22448;51.298;6.430;2023-07-13T10:58:19;25.50;96.50
35970;DHT22;22448;51.298;6.430;2023-07-13T11:03:46;25.10;97.20
35970;DHT22;22448;51.298;6.430;2023-07-13T11:08:53;24.80;97.70
35970;DHT22;22448;51.298;6.430;2023-07-13T11:18:47;25.20;98.10
35970;DHT22;22448;51.298;6.430;2023-07-13T11:21:26;25.20;97.30
35970;DHT22;22448;51.298;6.430;2023-07-13T11:24:04;25.50;97.60
35970;DHT22;22448;51.298;6.430;2023-07-13T11:31:59;25.80;97.00
35970;DHT22;22448;51.298;6.430;2023-07-13T11:34:38;25.90;96.80
35970;DHT22;22448;51.298;6.430;2023-07-13T11:37:12;25.70;96.60
35970;DHT22;22448;51.298;6.430;2023-07-13T11:39:42;26.00;96.60
35970;DHT22;22448;51.298;6.430;2023-07-13T11:42:16;26.10;94.90
35970;DHT22;22448;51.298;6.430;2023-07-13T11:44:47;25.70;94.30
35970;DHT22;22448;51.298;6.430;2023-07-13T11:47:40;25.70;95.20
35970;DHT22;22448;51.298;6.430;2023-07-13T11:50:18;25.90;96.40
35970;DHT22;22448;51.298;6.430;2023-07-13T11:52:46;25.90;96.40
35970;DHT22;22448;51.298;6.430;2023-07-13T11:55:15;25.60;95.00
35970;DHT22;22448;51.298;6.430;2023-07-13T11:57:56;25.50;95.60
35970;DHT22;22448;51.298;6.430;2023-07-13T12:00:29;25.70;95.90
35970;DHT22;22448;51.298;6.430;2023-07-13T12:03:02;25.80;95.40
35970;DHT22;22448;51.298;6.430;2023-07-13T12:05:31;25.90;95.00
35970;DHT22;22448;51.298;6.430;2023-07-13T12:07:59;25.90;96.10
35970;DHT22;22448;51.298;6.430;2023-07-13T12:10:35;25.60;95.00
35970;DHT22;22448;51.298;6.430;2023-07-13T12:13:04;25.60;95.90
35970;DHT22;22448;51.298;6.430;2023-07-13T12:15:44;25.80;95.60
35970;DHT22;22448;51.298;6.430;2023-07-13T12:18:18;26.20;95.70
35970;DHT22;22448;51.298;6.430;2023-07-13T12:20:46;26.20;95.10
35970;DHT22;22448;51.298;6.430;2023-07-13T12:23:34;26.20;95.30
35970;DHT22;22448;51.298;6.430;2023-07-13T12:26:03;26.60;94.50
35970;DHT22;22448;51.298;6.430;2023-07-13T12:28:37;26.70;93.90
35970;DHT22;22448;51.298;6.430;2023-07-13T12:31:24;26.90;93.30
35970;DHT22;22448;51.298;6.430;2023-07-13T12:34:06;27.10;93.40
35970;DHT22;22448;51.298;6.430;2023-07-13T12:36:36;27.20;94.40
35970;DHT22;22448;51.298;6.430;2023-07-13T12:39:13;27.20;93.70
35970;DHT22;22448;51.298;6.430;2023-07-13T12:41:41;27.10;93.60
35970;DHT22;22448;51.298;6.430;2023-07-13T12:44:16;27.20;93.50
35970;DHT22;22448;51.298;6.430;2023-07-13T12:46:55;27.10;93.90
35970;DHT22;22448;51.298;6.430;2023-07-13T12:49:26;27.10;93.00
35970;DHT22;22448;51.298;6.430;2023-07-13T12:51:59;27.00;92.80
35970;DHT22;22448;51.298;6.430;2023-07-13T12:54:27;27.00;94.50
35970;DHT22;22448;51.298;6.430;2023-07-13T12:56:57;26.70;93.20
35970;DHT22;22448;51.298;6.430;2023-07-13T12:59:29;26.10;93.10
35970;DHT22;22448;51.298;6.430;2023-07-13T13:01:56;25.60;93.80
35970;DHT22;22448;51.298;6.430;2023-07-13T13:04:23;25.30;94.50
35970;DHT22;22448;51.298;6.430;2023-07-13T13:07:01;25.30;94.20
35970;DHT22;22448;51.298;6.430;2023-07-13T13:09:28;25.60;94.60
35970;DHT22;22448;51.298;6.430;2023-07-13T13:11:56;26.00;94.20
35970;DHT22;22448;51.298;6.430;2023-07-13T13:14:23;26.40;93.80
35970;DHT22;22448;51.298;6.430;2023-07-13T13:16:51;26.60;92.70
35970;DHT22;22448;51.298;6.430;2023-07-13T13:19:25;26.50;93.10
35970;DHT22;22448;51.298;6.430;2023-07-13T13:21:55;26.20;92.50
35970;DHT22;22448;51.298;6.430;2023-07-13T13:24:27;26.00;92.80
35970;DHT22;22448;51.298;6.430;2023-07-13T13:26:55;26.00;92.50
35970;DHT22;22448;51.298;6.430;2023-07-13T13:29:24;26.10;93.20
35970;DHT22;22448;51.298;6.430;2023-07-13T13:31:53;26.20;93.60
35970;DHT22;22448;51.298;6.430;2023-07-13T13:34:21;26.20;93.40
35970;DHT22;22448;51.298;6.430;2023-07-13T13:36:53;26.10;93.60
35970;DHT22;22448;51.298;6.430;2023-07-13T13:39:34;26.20;94.20
35970;DHT22;22448;51.298;6.430;2023-07-13T13:42:02;26.20;94.00
35970;DHT22;22448;51.298;6.430;2023-07-13T13:44:29;26.20;93.50
35970;DHT22;22448;51.298;6.430;2023-07-13T13:46:57;26.20;93.70
35970;DHT22;22448;51.298;6.430;2023-07-13T13:49:26;26.30;94.00
35970;DHT22;22448;51.298;6.430;2023-07-13T13:51:54;26.50;94.20
35970;DHT22;22448;51.298;6.430;2023-07-13T13:54:22;26.50;94.40
35970;DHT22;22448;51.298;6.430;2023-07-13T13:56:51;26.30;92.80
35970;DHT22;22448;51.298;6.430;2023-07-13T13:59:19;26.00;92.80
35970;DHT22;22448;51.298;6.430;2023-07-13T14:01:47;25.90;93.50
35970;DHT22;22448;51.298;6.430;2023-07-13T14:04:19;25.60;93.20
35970;DHT22;22448;51.298;6.430;2023-07-13T14:06:47;25.50;93.50
35970;DHT22;22448;51.298;6.430;2023-07-13T14:09:18;25.30;94.30
35970;DHT22;22448;51.298;6.430;2023-07-13T14:11:48;25.20;94.40
35970;DHT22;22448;51.298;6.430;2023-07-13T14:14:20;25.30;94.50
35970;DHT22;22448;51.298;6.430;2023-07-13T14:16:49;25.20;95.30
35970;DHT22;22448;51.298;6.430;2023-07-13T14:19:21;25.00;94.40
35970;DHT22;22448;51.298;6.430;2023-07-13T14:21:48;24.60;94.50
35970;DHT22;22448;51.298;6.430;2023-07-13T14:24:16;24.40;95.20
35970;DHT22;22448;51.298;6.430;2023-07-13T14:26:43;24.40;95.70
35970;DHT22;22448;51.298;6.430;2023-07-13T14:29:14;24.60;96.80
35970;DHT22;22448;51.298;6.430;2023-07-13T14:31:42;24.90;95.20
35970;DHT22;22448;51.298;6.430;2023-07-13T14:34:11;25.30;94.90
35970;DHT22;22448;51.298;6.430;2023-07-13T14:36:44;25.50;94.70
35970;DHT22;22448;51.298;6.430;2023-07-13T14:39:15;25.40;94.80
35970;DHT22;22448;51.298;6.430;2023-07-13T14:41:44;25.20;95.00
35970;DHT22;22448;51.298;6.430;2023-07-13T14:44:15;24.90;95.10
35970;DHT22;22448;51.298;6.430;2023-07-13T14:46:44;24.60;95.20
35970;DHT22;22448;51.298;6.430;2023-07-13T14:49:37;24.40;95.60
35970;DHT22;22448;51.298;6.430;2023-07-13T14:52:18;24.20;96.20
35970;DHT22;22448;51.298;6.430;2023-07-13T14:54:45;24.10;96.60
35970;DHT22;22448;51.298;6.430;2023-07-13T14:57:17;23.90;96.60
35970;DHT22;22448;51.298;6.430;2023-07-13T14:59:46;23.80;96.90
35970;DHT22;22448;51.298;6.430;2023-07-13T15:02:24;23.60;97.60
35970;DHT22;22448;51.298;6.430;2023-07-13T15:04:53;23.40;97.70
35970;DHT22;22448;51.298;6.430;2023-07-13T15:07:21;23.10;98.70
35970;DHT22;22448;51.298;6.430;2023-07-13T15:09:50;22.80;99.20
35970;DHT22;22448;51.298;6.430;2023-07-13T15:12:18;22.60;99.90
35970;DHT22;22448;51.298;6.430;2023-07-13T15:14:47;22.30;99.90
35970;DHT22;22448;51.298;6.430;2023-07-13T15:17:25;22.10;99.90
35970;DHT22;22448;51.298;6.430;2023-07-13T15:19:53;21.90;99.90
35970;DHT22;22448;51.298;6.430;2023-07-13T15:22:21;21.70;99.90
35970;DHT22;22448;51.298;6.430;2023-07-13T15:24:48;21.60;99.90
35970;DHT22;22448;51.298;6.430;2023-07-13T15:27:15;21.50;99.90
35970;DHT22;22448;51.298;6.430;2023-07-13T15:29:42;21.30;99.90
35970;DHT22;22448;51.298;6.430;2023-07-13T15:32:14;21.30;99.90
35970;DHT22;22448;51.298;6.430;2023-07-13T15:34:41;21.20;99.90
35970;DHT22;22448;51.298;6.430;2023-07-13T15:37:13;21.10;99.90
35970;DHT22;22448;51.298;6.430;2023-07-13T15:39:42;21.10;99.90
35970;DHT22;22448;51.298;6.430;2023-07-13T15:42:18;21.10;99.90
35970;DHT22;22448;51.298;6.430;2023-07-13T15:44:46;21.20;99.90
35970;DHT22;22448;51.298;6.430;2023-07-13T15:47:17;21.20;99.90
35970;DHT22;22448;51.298;6.430;2023-07-13T15:49:45;21.30;99.90
35970;DHT22;22448;51.298;6.430;2023-07-13T15:52:20;21.40;99.90
35970;DHT22;22448;51.298;6.430;2023-07-13T15:54:49;21.50;99.90
35970;DHT22;22448;51.298;6.430;2023-07-13T15:57:16;21.60;99.90
35970;DHT22;22448;51.298;6.430;2023-07-13T15:59:44;21.70;99.90
35970;DHT22;22448;51.298;6.430;2023-07-13T16:02:18;21.70;99.90
35970;DHT22;22448;51.298;6.430;2023-07-13T16:04:48;21.70;99.90
35970;DHT22;22448;51.298;6.430;2023-07-13T16:07:17;21.70;99.90
35970;DHT22;22448;51.298;6.430;2023-07-13T16:09:45;21.70;99.90
35970;DHT22;22448;51.298;6.430;2023-07-13T16:12:13;21.60;99.90
35970;DHT22;22448;51.298;6.430;2023-07-13T16:14:41;21.60;99.90
35970;DHT22;22448;51.298;6.430;2023-07-13T16:17:10;21.70;99.90
35970;DHT22;22448;51.298;6.430;2023-07-13T16:19:38;21.70;99.90